sensor_id;sensor_type;location;lat;lon;timestamp;P1;durP1;ratioP1;P2;durP2;ratioP2
32918;SDS011;19280;42.646;21.150;2022-12-05T15:34:35;79.05;;;40.50;;
32918;SDS011;19280;42.646;21.150;2022-12-05T15:42:22;106.85;;;51.50;;
32918;SDS011;19280;42.646;21.150;2022-12-05T15:44:49;97.00;;;45.97;;
32918;SDS011;19280;42.646;21.150;2022-12-05T15:47:19;99.68;;;45.50;;
32918;SDS011;19280;42.646;21.150;2022-12-05T15:52:27;98.57;;;47.42;;
32918;SDS011;19280;42.646;21.150;2022-12-05T15:54:57;102.32;;;53.08;;
32918;SDS011;19280;42.646;21.150;2022-12-05T15:57:26;120.72;;;51.40;;
32918;SDS011;19280;42.646;21.150;2022-12-05T15:59:55;129.35;;;67.78;;
32918;SDS011;19280;42.646;21.150;2022-12-05T16:04:56;131.10;;;58.92;;
32918;SDS011;19280;42.646;21.150;2022-12-05T16:10:14;132.45;;;56.97;;
32918;SDS011;19280;42.646;21.150;2022-12-05T16:12:40;153.80;;;62.22;;
32918;SDS011;19280;42.646;21.150;2022-12-05T16:15:19;193.75;;;94.05;;
32918;SDS011;19280;42.646;21.150;2022-12-05T16:17:47;269.08;;;130.68;;
32918;SDS011;19280;42.646;21.150;2022-12-05T16:22:43;282.85;;;136.10;;
32918;SDS011;19280;42.646;21.150;2022-12-05T16:25:11;283.85;;;137.55;;
32918;SDS011;19280;42.646;21.150;2022-12-05T16:27:39;293.58;;;142.60;;
32918;SDS011;19280;42.646;21.150;2022-12-05T16:32:40;211.95;;;112.30;;
32918;SDS011;19280;42.646;21.150;2022-12-05T16:45:43;198.07;;;96.03;;
32918;SDS011;19280;42.646;21.150;2022-12-05T16:48:22;214.00;;;96.82;;
32918;SDS011;19280;42.646;21.150;2022-12-05T16:50:49;181.48;;;89.40;;
32918;SDS011;19280;42.646;21.150;2022-12-05T16:53:20;178.32;;;90.25;;
32918;SDS011;19280;42.646;21.150;2022-12-05T16:55:46;204.68;;;99.82;;
32918;SDS011;19280;42.646;21.150;2022-12-05T16:58:16;225.55;;;112.50;;
32918;SDS011;19280;42.646;21.150;2022-12-05T17:00:45;229.32;;;121.85;;
32918;SDS011;19280;42.646;21.150;2022-12-05T17:03:11;290.17;;;148.63;;
32918;SDS011;19280;42.646;21.150;2022-12-05T17:05:38;237.63;;;125.15;;
32918;SDS011;19280;42.646;21.150;2022-12-05T17:08:04;363.88;;;190.63;;
32918;SDS011;19280;42.646;21.150;2022-12-05T17:10:30;260.60;;;136.20;;
32918;SDS011;19280;42.646;21.150;2022-12-05T17:12:56;193.00;;;99.03;;
32918;SDS011;19280;42.646;21.150;2022-12-05T17:15:27;175.13;;;82.78;;
32918;SDS011;19280;42.646;21.150;2022-12-05T17:17:53;139.82;;;70.60;;
32918;SDS011;19280;42.646;21.150;2022-12-05T17:20:20;142.55;;;70.13;;
32918;SDS011;19280;42.646;21.150;2022-12-05T17:22:47;152.25;;;78.70;;
32918;SDS011;19280;42.646;21.150;2022-12-05T17:25:15;170.65;;;91.72;;
32918;SDS011;19280;42.646;21.150;2022-12-05T17:27:45;207.32;;;110.90;;
32918;SDS011;19280;42.646;21.150;2022-12-05T17:30:11;236.68;;;123.72;;
32918;SDS011;19280;42.646;21.150;2022-12-05T17:32:38;162.57;;;81.53;;
32918;SDS011;19280;42.646;21.150;2022-12-05T17:35:11;163.00;;;79.68;;
32918;SDS011;19280;42.646;21.150;2022-12-05T17:37:37;156.20;;;79.68;;
32918;SDS011;19280;42.646;21.150;2022-12-05T17:40:03;155.63;;;81.57;;
32918;SDS011;19280;42.646;21.150;2022-12-05T17:42:39;153.98;;;81.80;;
32918;SDS011;19280;42.646;21.150;2022-12-05T17:45:28;157.52;;;73.70;;
32918;SDS011;19280;42.646;21.150;2022-12-05T17:47:55;156.10;;;76.57;;
32918;SDS011;19280;42.646;21.150;2022-12-05T17:50:22;183.68;;;91.18;;
32918;SDS011;19280;42.646;21.150;2022-12-05T17:52:48;183.35;;;94.63;;
32918;SDS011;19280;42.646;21.150;2022-12-05T17:55:33;611.97;;;301.40;;
32918;SDS011;19280;42.646;21.150;2022-12-05T17:57:59;294.13;;;137.20;;
32918;SDS011;19280;42.646;21.150;2022-12-05T18:00:25;154.05;;;71.20;;
32918;SDS011;19280;42.646;21.150;2022-12-05T18:02:51;165.30;;;87.60;;
32918;SDS011;19280;42.646;21.150;2022-12-05T18:05:17;167.57;;;83.30;;
32918;SDS011;19280;42.646;21.150;2022-12-05T18:07:44;196.68;;;107.60;;
32918;SDS011;19280;42.646;21.150;2022-12-05T18:10:12;174.05;;;91.40;;
32918;SDS011;19280;42.646;21.150;2022-12-05T18:12:39;190.30;;;98.50;;
32918;SDS011;19280;42.646;21.150;2022-12-05T18:15:05;166.48;;;90.43;;
32918;SDS011;19280;42.646;21.150;2022-12-05T18:17:31;179.73;;;92.38;;
32918;SDS011;19280;42.646;21.150;2022-12-05T18:19:57;169.40;;;88.43;;
32918;SDS011;19280;42.646;21.150;2022-12-05T18:22:24;169.27;;;87.20;;
32918;SDS011;19280;42.646;21.150;2022-12-05T18:24:51;204.43;;;102.93;;
32918;SDS011;19280;42.646;21.150;2022-12-05T18:27:17;204.38;;;102.97;;
32918;SDS011;19280;42.646;21.150;2022-12-05T18:29:46;184.40;;;91.70;;
32918;SDS011;19280;42.646;21.150;2022-12-05T18:32:12;168.30;;;83.07;;
32918;SDS011;19280;42.646;21.150;2022-12-05T18:34:38;159.23;;;76.55;;
32918;SDS011;19280;42.646;21.150;2022-12-05T18:37:04;152.00;;;75.68;;
32918;SDS011;19280;42.646;21.150;2022-12-05T18:39:31;160.30;;;81.03;;
32918;SDS011;19280;42.646;21.150;2022-12-05T18:41:57;154.98;;;74.63;;
32918;SDS011;19280;42.646;21.150;2022-12-05T18:44:23;141.90;;;70.80;;
32918;SDS011;19280;42.646;21.150;2022-12-05T18:46:49;126.15;;;66.82;;
32918;SDS011;19280;42.646;21.150;2022-12-05T18:49:15;133.07;;;62.83;;
32918;SDS011;19280;42.646;21.150;2022-12-05T18:51:42;113.00;;;59.47;;
32918;SDS011;19280;42.646;21.150;2022-12-05T18:54:08;124.05;;;55.60;;
32918;SDS011;19280;42.646;21.150;2022-12-05T18:56:35;122.15;;;59.47;;
32918;SDS011;19280;42.646;21.150;2022-12-05T18:59:04;129.32;;;56.88;;
32918;SDS011;19280;42.646;21.150;2022-12-05T19:01:32;104.55;;;57.80;;
32918;SDS011;19280;42.646;21.150;2022-12-05T19:03:59;118.47;;;54.13;;
32918;SDS011;19280;42.646;21.150;2022-12-05T19:06:26;117.00;;;56.92;;
32918;SDS011;19280;42.646;21.150;2022-12-05T19:08:54;132.82;;;63.92;;
32918;SDS011;19280;42.646;21.150;2022-12-05T19:11:20;149.95;;;75.22;;
32918;SDS011;19280;42.646;21.150;2022-12-05T19:13:47;171.63;;;85.03;;
32918;SDS011;19280;42.646;21.150;2022-12-05T19:16:13;145.18;;;73.95;;
32918;SDS011;19280;42.646;21.150;2022-12-05T19:18:42;122.90;;;62.05;;
32918;SDS011;19280;42.646;21.150;2022-12-05T19:21:09;137.77;;;64.38;;
32918;SDS011;19280;42.646;21.150;2022-12-05T19:23:35;142.48;;;64.32;;
32918;SDS011;19280;42.646;21.150;2022-12-05T19:26:02;141.10;;;67.18;;
32918;SDS011;19280;42.646;21.150;2022-12-05T19:28:28;147.40;;;74.05;;
32918;SDS011;19280;42.646;21.150;2022-12-05T19:31:03;156.13;;;75.22;;
32918;SDS011;19280;42.646;21.150;2022-12-05T19:33:33;173.65;;;85.75;;
32918;SDS011;19280;42.646;21.150;2022-12-05T19:36:05;163.85;;;78.15;;
32918;SDS011;19280;42.646;21.150;2022-12-05T19:38:32;152.57;;;76.22;;
32918;SDS011;19280;42.646;21.150;2022-12-05T19:40:59;144.75;;;71.30;;
32918;SDS011;19280;42.646;21.150;2022-12-05T19:43:26;140.80;;;68.93;;
32918;SDS011;19280;42.646;21.150;2022-12-05T19:45:52;138.57;;;67.72;;
32918;SDS011;19280;42.646;21.150;2022-12-05T19:48:18;134.70;;;61.53;;
32918;SDS011;19280;42.646;21.150;2022-12-05T19:50:50;125.45;;;59.63;;
32918;SDS011;19280;42.646;21.150;2022-12-05T19:53:16;127.07;;;58.72;;
32918;SDS011;19280;42.646;21.150;2022-12-05T19:55:44;116.30;;;57.42;;
32918;SDS011;19280;42.646;21.150;2022-12-05T19:58:10;116.70;;;59.15;;
32918;SDS011;19280;42.646;21.150;2022-12-05T20:00:36;137.73;;;60.05;;
32918;SDS011;19280;42.646;21.150;2022-12-05T20:03:02;106.30;;;53.35;;
32918;SDS011;19280;42.646;21.150;2022-12-05T20:05:28;94.50;;;43.13;;
32918;SDS011;19280;42.646;21.150;2022-12-05T20:07:55;84.47;;;39.67;;
32918;SDS011;19280;42.646;21.150;2022-12-05T20:10:21;79.43;;;37.25;;
32918;SDS011;19280;42.646;21.150;2022-12-05T20:12:49;84.40;;;38.30;;
32918;SDS011;19280;42.646;21.150;2022-12-05T20:15:15;92.50;;;40.05;;
32918;SDS011;19280;42.646;21.150;2022-12-05T20:17:41;93.28;;;42.10;;
32918;SDS011;19280;42.646;21.150;2022-12-05T20:20:07;99.90;;;43.25;;
32918;SDS011;19280;42.646;21.150;2022-12-05T20:22:34;92.03;;;41.15;;
32918;SDS011;19280;42.646;21.150;2022-12-05T20:25:00;114.45;;;43.75;;
32918;SDS011;19280;42.646;21.150;2022-12-05T20:27:26;124.18;;;53.67;;
32918;SDS011;19280;42.646;21.150;2022-12-05T20:29:52;116.20;;;52.42;;
32918;SDS011;19280;42.646;21.150;2022-12-05T20:32:18;119.50;;;53.25;;
32918;SDS011;19280;42.646;21.150;2022-12-05T20:34:45;113.45;;;51.35;;
32918;SDS011;19280;42.646;21.150;2022-12-05T20:37:11;115.07;;;53.72;;
32918;SDS011;19280;42.646;21.150;2022-12-05T20:39:37;111.40;;;51.00;;
32918;SDS011;19280;42.646;21.150;2022-12-05T20:42:03;114.30;;;50.47;;
32918;SDS011;19280;42.646;21.150;2022-12-05T20:44:29;111.47;;;48.95;;
32918;SDS011;19280;42.646;21.150;2022-12-05T20:46:55;96.30;;;46.17;;
32918;SDS011;19280;42.646;21.150;2022-12-05T20:49:22;102.15;;;45.17;;
32918;SDS011;19280;42.646;21.150;2022-12-05T20:51:48;92.20;;;42.65;;
32918;SDS011;19280;42.646;21.150;2022-12-05T20:54:14;90.25;;;41.90;;
32918;SDS011;19280;42.646;21.150;2022-12-05T20:56:43;96.32;;;42.28;;
32918;SDS011;19280;42.646;21.150;2022-12-05T20:59:10;96.55;;;40.13;;
32918;SDS011;19280;42.646;21.150;2022-12-05T21:01:36;103.20;;;44.15;;
32918;SDS011;19280;42.646;21.150;2022-12-05T21:04:03;97.00;;;44.70;;
32918;SDS011;19280;42.646;21.150;2022-12-05T21:06:31;96.15;;;45.53;;
32918;SDS011;19280;42.646;21.150;2022-12-05T21:08:57;123.97;;;49.38;;
32918;SDS011;19280;42.646;21.150;2022-12-05T21:11:24;102.00;;;47.60;;
32918;SDS011;19280;42.646;21.150;2022-12-05T21:13:51;97.30;;;43.88;;
32918;SDS011;19280;42.646;21.150;2022-12-05T21:16:19;97.72;;;43.80;;
32918;SDS011;19280;42.646;21.150;2022-12-05T21:18:47;116.43;;;50.67;;
32918;SDS011;19280;42.646;21.150;2022-12-05T21:21:17;106.03;;;48.95;;
32918;SDS011;19280;42.646;21.150;2022-12-05T21:23:44;115.07;;;51.00;;
32918;SDS011;19280;42.646;21.150;2022-12-05T21:26:14;127.78;;;50.67;;
32918;SDS011;19280;42.646;21.150;2022-12-05T21:28:41;110.38;;;51.30;;
32918;SDS011;19280;42.646;21.150;2022-12-05T21:31:23;114.53;;;52.58;;
32918;SDS011;19280;42.646;21.150;2022-12-05T21:33:59;153.80;;;65.97;;
32918;SDS011;19280;42.646;21.150;2022-12-05T21:36:26;148.43;;;66.88;;
32918;SDS011;19280;42.646;21.150;2022-12-05T21:38:52;141.95;;;61.63;;
32918;SDS011;19280;42.646;21.150;2022-12-05T21:41:18;129.82;;;56.35;;
32918;SDS011;19280;42.646;21.150;2022-12-05T21:43:44;96.45;;;46.47;;
32918;SDS011;19280;42.646;21.150;2022-12-05T21:46:11;94.47;;;40.92;;
32918;SDS011;19280;42.646;21.150;2022-12-05T21:48:37;92.50;;;39.20;;
32918;SDS011;19280;42.646;21.150;2022-12-05T21:51:06;92.95;;;39.20;;
32918;SDS011;19280;42.646;21.150;2022-12-05T21:53:33;94.90;;;39.13;;
32918;SDS011;19280;42.646;21.150;2022-12-05T21:56:00;86.00;;;38.13;;
32918;SDS011;19280;42.646;21.150;2022-12-05T21:58:27;81.05;;;35.38;;
32918;SDS011;19280;42.646;21.150;2022-12-05T22:00:53;81.22;;;36.60;;
32918;SDS011;19280;42.646;21.150;2022-12-05T22:03:19;93.10;;;38.05;;
32918;SDS011;19280;42.646;21.150;2022-12-05T22:05:45;96.60;;;42.30;;
32918;SDS011;19280;42.646;21.150;2022-12-05T22:08:11;107.55;;;47.25;;
32918;SDS011;19280;42.646;21.150;2022-12-05T22:10:37;106.22;;;45.38;;
32918;SDS011;19280;42.646;21.150;2022-12-05T22:13:03;98.78;;;43.25;;
32918;SDS011;19280;42.646;21.150;2022-12-05T22:15:30;100.75;;;45.47;;
32918;SDS011;19280;42.646;21.150;2022-12-05T22:17:56;106.35;;;46.15;;
32918;SDS011;19280;42.646;21.150;2022-12-05T22:20:22;116.32;;;46.42;;
32918;SDS011;19280;42.646;21.150;2022-12-05T22:22:48;115.10;;;50.55;;
32918;SDS011;19280;42.646;21.150;2022-12-05T22:25:14;105.38;;;47.60;;
32918;SDS011;19280;42.646;21.150;2022-12-05T22:27:40;110.03;;;48.35;;
32918;SDS011;19280;42.646;21.150;2022-12-05T22:30:06;115.25;;;50.53;;
32918;SDS011;19280;42.646;21.150;2022-12-05T22:32:32;122.57;;;54.08;;
32918;SDS011;19280;42.646;21.150;2022-12-05T22:34:58;118.03;;;53.35;;
32918;SDS011;19280;42.646;21.150;2022-12-05T22:37:25;126.90;;;54.80;;
32918;SDS011;19280;42.646;21.150;2022-12-05T22:39:51;124.25;;;55.75;;
32918;SDS011;19280;42.646;21.150;2022-12-05T22:42:17;128.35;;;59.70;;
32918;SDS011;19280;42.646;21.150;2022-12-05T22:44:43;119.75;;;53.60;;
32918;SDS011;19280;42.646;21.150;2022-12-05T22:47:09;92.00;;;42.97;;
32918;SDS011;19280;42.646;21.150;2022-12-05T22:49:35;99.85;;;39.65;;
32918;SDS011;19280;42.646;21.150;2022-12-05T22:52:01;98.57;;;39.58;;
32918;SDS011;19280;42.646;21.150;2022-12-05T22:54:27;104.68;;;39.33;;
32918;SDS011;19280;42.646;21.150;2022-12-05T22:56:54;90.68;;;39.08;;
32918;SDS011;19280;42.646;21.150;2022-12-05T22:59:20;94.93;;;39.45;;
32918;SDS011;19280;42.646;21.150;2022-12-05T23:01:46;87.28;;;37.13;;
32918;SDS011;19280;42.646;21.150;2022-12-05T23:04:12;92.90;;;39.78;;
32918;SDS011;19280;42.646;21.150;2022-12-05T23:06:38;91.85;;;39.13;;
32918;SDS011;19280;42.646;21.150;2022-12-05T23:09:05;89.63;;;37.70;;
32918;SDS011;19280;42.646;21.150;2022-12-05T23:11:32;89.65;;;38.05;;
32918;SDS011;19280;42.646;21.150;2022-12-05T23:13:58;82.90;;;37.08;;
32918;SDS011;19280;42.646;21.150;2022-12-05T23:16:25;84.90;;;37.08;;
32918;SDS011;19280;42.646;21.150;2022-12-05T23:18:53;77.53;;;35.42;;
32918;SDS011;19280;42.646;21.150;2022-12-05T23:21:33;74.97;;;34.85;;
32918;SDS011;19280;42.646;21.150;2022-12-05T23:24:00;77.25;;;33.67;;
32918;SDS011;19280;42.646;21.150;2022-12-05T23:26:28;81.28;;;36.25;;
32918;SDS011;19280;42.646;21.150;2022-12-05T23:28:55;76.78;;;34.85;;
32918;SDS011;19280;42.646;21.150;2022-12-05T23:31:21;71.35;;;34.08;;
32918;SDS011;19280;42.646;21.150;2022-12-05T23:33:47;72.03;;;33.92;;
32918;SDS011;19280;42.646;21.150;2022-12-05T23:36:14;73.38;;;33.78;;
32918;SDS011;19280;42.646;21.150;2022-12-05T23:38:41;74.05;;;32.80;;
32918;SDS011;19280;42.646;21.150;2022-12-05T23:41:09;71.82;;;32.90;;
32918;SDS011;19280;42.646;21.150;2022-12-05T23:43:36;74.65;;;32.92;;
32918;SDS011;19280;42.646;21.150;2022-12-05T23:46:02;76.38;;;34.53;;
32918;SDS011;19280;42.646;21.150;2022-12-05T23:48:29;70.55;;;34.20;;
32918;SDS011;19280;42.646;21.150;2022-12-05T23:50:56;79.82;;;34.05;;
32918;SDS011;19280;42.646;21.150;2022-12-05T23:53:22;72.63;;;32.50;;
32918;SDS011;19280;42.646;21.150;2022-12-05T23:55:48;68.95;;;33.28;;
32918;SDS011;19280;42.646;21.150;2022-12-05T23:58:14;68.95;;;31.77;;
